Terminal Aerodrome Forecast
Issued by NWS

Home | Current Version | Previous Version | Text Only | Print | Product List | Glossary On
Versions: 1 2 3 4 5 6 7 8 9 10 11 12 13 14 15 16 17 18 19 20 21 22 23 24 25 26 27 28 29 30 31 32 33 34 35 36 37 38 39
000
FTUS45 KGJT 172341
TAFEGE
TAF
KEGE 172341Z 1800/1824 00000KT P6SM VCSH SCT040 OVC060
      TEMPO 1800/1802 5SM BR BKN040
     FM180200 09003KT P6SM VCFG SCT040 OVC060
     FM181700 00000KT P6SM SCT060 BKN100
      AMD LTD TO CLD VIS AND WIND 1806/1814=

USA.gov is the U.S. government's official web portal to all federal, state and local government web resources and services.